createdAt,value
2023-04-02T00:02:26.348Z,5.47
2023-04-02T00:05:11.535Z,6.18
2023-04-02T00:07:44.887Z,6.22
2023-04-02T00:10:29.162Z,6.40
2023-04-02T00:13:06.075Z,5.65
2023-04-02T00:15:37.094Z,5.80
2023-04-02T00:18:08.045Z,5.63
2023-04-02T00:20:39.589Z,7.75
2023-04-02T00:23:10.752Z,6.55
2023-04-02T00:25:43.354Z,7.28
2023-04-02T00:28:18.236Z,7.78
2023-04-02T00:30:52.863Z,6.00
2023-04-02T00:33:24.270Z,5.30
2023-04-02T00:35:56.267Z,3.80
2023-04-02T00:38:28.890Z,6.30
2023-04-02T00:41:00.478Z,5.20
2023-04-02T00:43:36.086Z,5.55
2023-04-02T00:46:11.157Z,4.43
2023-04-02T00:48:45.321Z,6.15
2023-04-02T00:51:18.130Z,5.35
2023-04-02T00:53:49.806Z,6.15
2023-04-02T00:56:23.100Z,4.80
2023-04-02T00:58:58.708Z,6.38
2023-04-02T01:01:30.292Z,6.03
2023-04-02T01:04:01.588Z,5.28
2023-04-02T01:06:34.423Z,5.97
2023-04-02T01:09:11.763Z,7.05
2023-04-02T01:11:56.413Z,7.90
2023-04-02T01:14:37.052Z,5.53
2023-04-02T01:17:11.678Z,5.90
2023-04-02T01:19:52.800Z,3.00
2023-04-02T01:22:26.246Z,4.72
2023-04-02T01:25:00.038Z,5.80
2023-04-02T01:27:32.182Z,6.05
2023-04-02T01:30:07.667Z,4.40
2023-04-02T01:32:38.307Z,6.32
2023-04-02T01:35:09.253Z,5.85
2023-04-02T01:37:45.110Z,6.13
2023-04-02T01:40:24.020Z,5.82
2023-04-02T01:42:59.065Z,5.05
2023-04-02T01:45:32.539Z,5.07
2023-04-02T01:48:03.170Z,6.07
2023-04-02T01:50:37.358Z,4.07
2023-04-02T01:53:08.989Z,5.93
2023-04-02T01:55:43.392Z,7.75
2023-04-02T01:58:14.431Z,4.07
2023-04-02T02:00:49.947Z,6.20
2023-04-02T02:03:20.817Z,6.65
2023-04-02T02:05:51.249Z,6.50
2023-04-02T02:08:29.503Z,5.72
2023-04-02T02:11:00.442Z,5.88
2023-04-02T02:13:32.442Z,6.38
2023-04-02T02:16:06.979Z,7.72
2023-04-02T02:18:37.416Z,7.28
2023-04-02T02:21:08.680Z,8.80
2023-04-02T02:26:10.414Z,7.68
2023-04-02T02:28:42.240Z,7.50
2023-04-02T02:31:18.005Z,8.57
2023-04-02T02:33:50.767Z,7.35
2023-04-02T02:36:25.644Z,7.68
2023-04-02T02:38:59.399Z,6.15
2023-04-02T02:41:32.127Z,7.07
2023-04-02T02:44:04.554Z,7.25
2023-04-02T02:46:38.381Z,5.20
2023-04-02T02:49:09.753Z,7.20
2023-04-02T02:54:10.748Z,7.38
2023-04-02T02:56:44.125Z,6.45
2023-04-02T02:59:14.983Z,6.75
2023-04-02T03:01:48.403Z,4.68
2023-04-02T03:04:23.921Z,6.53
2023-04-02T03:06:55.195Z,7.13
2023-04-02T03:11:57.374Z,6.75
2023-04-02T03:14:32.486Z,6.38
2023-04-02T03:17:08.946Z,8.50
2023-04-02T03:19:41.989Z,8.00
2023-04-02T03:22:16.053Z,6.68
2023-04-02T03:24:51.108Z,6.43
2023-04-02T03:27:23.948Z,7.30
2023-04-02T03:29:58.078Z,4.63
2023-04-02T03:32:33.347Z,5.82
2023-04-02T03:35:05.304Z,7.97
2023-04-02T03:37:38.851Z,6.97
2023-04-02T03:40:12.486Z,7.78
2023-04-02T03:42:44.576Z,4.40
2023-04-02T03:45:17.963Z,5.07
2023-04-02T03:47:53.367Z,4.63
2023-04-02T03:50:27.354Z,6.20
2023-04-02T03:52:57.664Z,4.35
2023-04-02T03:55:29.735Z,6.90
2023-04-02T03:58:05.407Z,6.75
2023-04-02T04:00:39.031Z,6.85
2023-04-02T04:03:15.288Z,9.23
2023-04-02T04:05:49.500Z,6.63
2023-04-02T04:08:21.439Z,7.57
2023-04-02T04:10:54.624Z,5.93
2023-04-02T04:13:29.454Z,5.93
2023-04-02T04:16:03.374Z,6.07
2023-04-02T04:18:38.502Z,4.65
2023-04-02T04:21:15.725Z,7.85
2023-04-02T04:23:51.662Z,6.45
2023-04-02T04:26:24.897Z,4.35
2023-04-02T04:29:00.805Z,4.45
2023-04-02T04:31:34.222Z,5.93
2023-04-02T04:34:10.517Z,8.65
2023-04-02T04:36:54.416Z,5.13
2023-04-02T04:39:29.900Z,7.07
2023-04-02T04:42:01.544Z,7.95
2023-04-02T04:44:36.706Z,5.70
2023-04-02T04:47:09.912Z,6.03
2023-04-02T04:49:46.162Z,7.10
2023-04-02T04:52:20.768Z,5.93
2023-04-02T04:54:51.523Z,7.85
2023-04-02T04:57:26.322Z,8.05
2023-04-02T05:00:08.738Z,3.25
2023-04-02T05:02:43.183Z,7.28
2023-04-02T05:05:23.813Z,5.88
2023-04-02T05:07:55.088Z,5.40
2023-04-02T05:10:31.127Z,7.90
2023-04-02T05:13:05.843Z,8.65
2023-04-02T05:15:37.515Z,5.32
2023-04-02T05:18:15.743Z,7.28
2023-04-02T05:20:51.825Z,7.53
2023-04-02T05:23:24.878Z,3.72
2023-04-02T05:26:02.561Z,5.38
2023-04-02T05:28:35.772Z,5.00
2023-04-02T05:31:07.179Z,3.08
2023-04-02T05:36:12.188Z,2.95
2023-04-02T05:38:43.692Z,7.82
2023-04-02T05:41:21.168Z,7.30
2023-04-02T05:43:52.267Z,5.63
2023-04-02T05:46:27.487Z,3.50
2023-04-02T05:48:59.154Z,7.50
2023-04-02T05:51:34.654Z,6.35
2023-04-02T05:54:06.951Z,4.28
2023-04-02T05:56:39.656Z,6.47
2023-04-02T05:59:11.691Z,6.65
2023-04-02T06:01:45.808Z,5.43
2023-04-02T06:04:21.359Z,5.10
2023-04-02T06:06:57.287Z,5.43
2023-04-02T06:09:31.295Z,6.95
2023-04-02T06:12:04.188Z,6.32
2023-04-02T06:14:34.626Z,4.38
2023-04-02T06:17:05.038Z,7.35
2023-04-02T06:19:36.666Z,6.50
2023-04-02T06:22:15.705Z,6.00
2023-04-02T06:24:47.751Z,6.65
2023-04-02T06:27:23.110Z,7.72
2023-04-02T06:29:55.822Z,6.57
2023-04-02T06:32:28.656Z,5.47
2023-04-02T06:34:59.290Z,6.97
2023-04-02T06:37:35.283Z,6.40
2023-04-02T06:40:06.368Z,8.50
2023-04-02T06:42:38.269Z,4.90
2023-04-02T06:45:09.515Z,5.90
2023-04-02T06:50:12.061Z,4.55
2023-04-02T06:52:48.366Z,5.78
2023-04-02T06:55:30.223Z,5.63
2023-04-02T06:58:00.683Z,8.20
2023-04-02T07:00:34.162Z,9.25
2023-04-02T07:03:05.804Z,4.93
2023-04-02T07:05:36.301Z,7.72
2023-04-02T07:08:10.084Z,6.15
2023-04-02T07:10:40.392Z,5.72
2023-04-02T07:13:10.854Z,6.68
2023-04-02T07:15:41.164Z,3.97
2023-04-02T07:18:13.207Z,5.25
2023-04-02T07:20:43.556Z,4.57
2023-04-02T07:23:17.110Z,7.15
2023-04-02T07:25:47.628Z,7.60
2023-04-02T07:28:19.167Z,7.03
2023-04-02T07:30:50.282Z,4.57
2023-04-02T07:33:21.747Z,6.47
2023-04-02T07:38:24.769Z,3.17
2023-04-02T07:40:55.093Z,6.38
2023-04-02T07:43:25.419Z,4.72
2023-04-02T07:45:55.699Z,5.65
2023-04-02T07:48:26.034Z,4.10
2023-04-02T07:50:56.311Z,3.08
2023-04-02T07:53:34.113Z,6.60
2023-04-02T07:56:05.183Z,4.03
2023-04-02T07:58:36.250Z,5.82
2023-04-02T08:01:06.549Z,6.43
2023-04-02T08:03:37.069Z,4.50
2023-04-02T08:06:07.511Z,3.55
2023-04-02T08:08:40.517Z,6.07
2023-04-02T08:11:11.027Z,5.53
2023-04-02T08:13:41.650Z,5.90
2023-04-02T08:16:12.127Z,3.72
2023-04-02T08:18:42.514Z,5.55
2023-04-02T08:21:16.371Z,8.07
2023-04-02T08:23:50.771Z,4.32
2023-04-02T08:26:22.194Z,4.38
2023-04-02T08:31:23.720Z,4.18
2023-04-02T08:33:54.375Z,3.90
2023-04-02T08:36:28.736Z,5.03
2023-04-02T08:39:02.183Z,3.33
2023-04-02T08:41:33.316Z,2.63
2023-04-02T08:44:13.718Z,4.05
2023-04-02T08:46:47.722Z,2.50
2023-04-02T08:49:20.697Z,3.47
2023-04-02T08:51:51.092Z,2.65
2023-04-02T08:54:27.810Z,4.15
2023-04-02T08:57:00.075Z,2.08
2023-04-02T08:59:35.217Z,2.08
2023-04-02T09:02:16.760Z,2.65
2023-04-02T09:04:47.181Z,3.33
2023-04-02T09:07:19.467Z,3.80
2023-04-02T09:09:53.034Z,5.63
2023-04-02T09:12:24.335Z,1.77
2023-04-02T09:17:26.007Z,3.10
2023-04-02T09:19:59.147Z,2.17
2023-04-02T09:22:30.335Z,4.57
2023-04-02T09:25:04.489Z,2.90
2023-04-02T09:27:36.075Z,3.90
2023-04-02T09:30:10.495Z,4.30
2023-04-02T09:32:48.255Z,2.40
2023-04-02T09:35:39.590Z,2.28
2023-04-02T09:38:21.180Z,2.65
2023-04-02T09:40:55.838Z,3.85
2023-04-02T09:43:28.283Z,1.45
2023-04-02T09:46:00.132Z,2.75
2023-04-02T09:48:32.980Z,2.28
2023-04-02T09:51:23.959Z,1.50
2023-04-02T09:53:55.536Z,3.08
2023-04-02T09:56:28.642Z,2.50
2023-04-02T09:59:09.130Z,2.55
2023-04-02T10:01:40.284Z,3.45
2023-04-02T10:04:30.664Z,2.20
2023-04-02T10:07:01.117Z,2.70
2023-04-02T10:09:32.647Z,3.17
2023-04-02T10:12:06.737Z,2.80
2023-04-02T10:14:39.295Z,2.13
2023-04-02T10:17:14.360Z,2.88
2023-04-02T10:19:46.368Z,1.58
2023-04-02T10:22:17.323Z,1.65
2023-04-02T10:24:47.869Z,2.05
2023-04-02T10:27:26.437Z,2.30
2023-04-02T10:30:05.647Z,2.28
2023-04-02T10:32:41.110Z,2.17
2023-04-02T10:35:14.719Z,3.20
2023-04-02T10:38:13.917Z,1.92
2023-04-02T10:40:46.669Z,1.55
2023-04-02T10:43:32.143Z,1.80
2023-04-02T10:46:09.659Z,2.72
2023-04-02T10:48:44.153Z,2.10
2023-04-02T10:51:17.330Z,1.40
2023-04-02T10:53:53.053Z,1.40
2023-04-02T10:56:24.311Z,1.08
2023-04-02T10:58:58.236Z,3.17
2023-04-02T11:01:32.175Z,1.77
2023-04-02T11:04:05.878Z,1.20
2023-04-02T11:06:38.871Z,2.53
2023-04-02T11:09:11.180Z,0.88
2023-04-02T11:11:43.539Z,1.90
2023-04-02T11:14:16.654Z,1.90
2023-04-02T11:16:52.049Z,1.35
2023-04-02T11:19:29.939Z,3.28
2023-04-02T11:24:50.160Z,2.45
2023-04-02T11:27:29.281Z,1.70
2023-04-02T11:30:06.969Z,2.40
2023-04-02T11:32:42.826Z,2.35
2023-04-02T11:35:28.917Z,2.90
2023-04-02T11:38:00.036Z,3.40
2023-04-02T11:40:45.644Z,2.97
2023-04-02T11:43:30.920Z,2.13
2023-04-02T11:46:02.414Z,2.58
2023-04-02T11:48:36.380Z,2.97
2023-04-02T11:51:14.274Z,3.72
2023-04-02T11:53:46.345Z,2.65
2023-04-02T11:56:24.088Z,2.17
2023-04-02T11:58:59.562Z,2.00
2023-04-02T12:01:46.393Z,2.15
2023-04-02T12:04:40.928Z,2.25
2023-04-02T12:07:26.893Z,3.17
2023-04-02T12:09:58.414Z,2.40
2023-04-02T12:12:30.560Z,1.88
2023-04-02T12:15:01.505Z,2.58
2023-04-02T12:17:33.050Z,2.58
2023-04-02T12:20:08.427Z,3.03
2023-04-02T12:22:42.708Z,2.45
2023-04-02T12:25:26.840Z,2.95
2023-04-02T12:28:08.165Z,3.95
2023-04-02T12:30:38.865Z,0.93
2023-04-02T12:33:30.818Z,3.00
2023-04-02T12:36:02.165Z,2.72
2023-04-02T12:41:06.564Z,1.83
2023-04-02T12:43:38.318Z,1.42
2023-04-02T12:46:10.204Z,2.17
2023-04-02T12:48:41.684Z,2.08
2023-04-02T12:51:13.889Z,1.77
2023-04-02T12:53:45.109Z,1.75
2023-04-02T12:56:25.269Z,1.50
2023-04-02T12:58:56.930Z,2.05
2023-04-02T13:01:28.467Z,1.77
2023-04-02T13:04:06.373Z,1.75
2023-04-02T13:09:08.141Z,3.38
2023-04-02T13:11:42.039Z,4.38
2023-04-02T13:14:20.360Z,2.88
2023-04-02T13:16:51.224Z,2.22
2023-04-02T13:19:25.139Z,1.50
2023-04-02T13:21:56.043Z,1.90
2023-04-02T13:24:27.089Z,1.10
2023-04-02T13:27:01.274Z,1.77
2023-04-02T13:29:32.219Z,1.42
2023-04-02T13:32:03.486Z,1.90
2023-04-02T13:34:34.082Z,1.77
2023-04-02T13:37:04.407Z,0.85
2023-04-02T13:39:34.769Z,1.83
2023-04-02T13:42:09.149Z,1.85
2023-04-02T13:44:40.070Z,3.38
2023-04-02T13:47:10.607Z,1.73
2023-04-02T13:49:40.934Z,1.23
2023-04-02T13:52:16.965Z,1.38
2023-04-02T13:54:49.079Z,1.55
2023-04-02T13:57:22.500Z,1.45
2023-04-02T13:59:52.924Z,1.60
2023-04-02T14:02:25.672Z,0.80
2023-04-02T14:04:58.459Z,1.52
2023-04-02T14:07:35.889Z,1.33
2023-04-02T14:10:15.012Z,0.90
2023-04-02T14:12:56.863Z,1.42
2023-04-02T14:15:32.515Z,1.13
2023-04-02T14:18:14.791Z,1.67
2023-04-02T14:20:51.675Z,1.95
2023-04-02T14:23:29.639Z,0.88
2023-04-02T14:26:04.857Z,0.90
2023-04-02T14:28:43.038Z,1.88
2023-04-02T14:31:18.436Z,0.98
2023-04-02T14:33:53.222Z,1.20
2023-04-02T14:36:27.914Z,1.38
2023-04-02T14:38:59.227Z,1.23
2023-04-02T14:41:34.276Z,0.85
2023-04-02T14:44:08.582Z,1.02
2023-04-02T14:46:40.309Z,1.25
2023-04-02T14:49:20.799Z,1.75
2023-04-02T14:51:53.102Z,1.02
2023-04-02T14:54:26.341Z,1.17
2023-04-02T14:56:58.625Z,0.68
2023-04-02T14:59:34.493Z,1.17
2023-04-02T15:02:07.464Z,2.80
2023-04-02T15:04:40.866Z,1.33
2023-04-02T15:07:16.284Z,2.08
2023-04-02T15:09:50.729Z,1.08
2023-04-02T15:12:24.216Z,1.45
2023-04-02T15:14:58.598Z,1.63
2023-04-02T15:17:29.138Z,1.70
2023-04-02T15:20:02.541Z,0.90
2023-04-02T15:22:35.824Z,1.75
2023-04-02T15:25:14.369Z,1.85
2023-04-02T15:27:55.890Z,2.08
2023-04-02T15:30:29.660Z,1.00
2023-04-02T15:33:01.293Z,2.25
2023-04-02T15:35:39.102Z,1.65
2023-04-02T15:38:13.616Z,1.80
2023-04-02T15:40:50.175Z,2.05
2023-04-02T15:43:24.226Z,2.03
2023-04-02T15:46:09.039Z,1.27
2023-04-02T15:48:54.342Z,0.77
2023-04-02T15:51:30.264Z,2.05
2023-04-02T15:54:07.128Z,1.55
2023-04-02T15:56:43.875Z,1.60
2023-04-02T15:59:32.039Z,1.42
2023-04-02T16:02:10.772Z,1.52
2023-04-02T16:04:52.027Z,1.65
2023-04-02T16:07:32.327Z,2.55
2023-04-02T16:10:08.757Z,2.17
2023-04-02T16:12:40.837Z,3.17
2023-04-02T16:15:18.041Z,1.45
2023-04-02T16:17:53.908Z,1.70
2023-04-02T16:20:27.587Z,2.13
2023-04-02T16:23:01.436Z,2.33
2023-04-02T16:25:35.091Z,1.58
2023-04-02T16:28:10.845Z,3.90
2023-04-02T16:30:48.225Z,2.60
2023-04-02T16:33:27.979Z,1.92
2023-04-02T16:36:03.077Z,2.03
2023-04-02T16:38:40.576Z,2.03
2023-04-02T16:41:13.538Z,1.83
2023-04-02T16:43:47.590Z,1.33
2023-04-02T16:46:38.320Z,1.60
2023-04-02T16:49:16.098Z,0.70
2023-04-02T16:51:49.112Z,1.90
2023-04-02T16:54:21.743Z,1.08
2023-04-02T16:56:58.922Z,1.30
2023-04-02T16:59:34.376Z,2.08
2023-04-02T17:02:07.449Z,1.52
2023-04-02T17:04:52.729Z,2.28
2023-04-02T17:07:31.438Z,1.92
2023-04-02T17:10:06.104Z,1.67
2023-04-02T17:12:39.748Z,2.33
2023-04-02T17:15:24.778Z,1.63
2023-04-02T17:18:00.533Z,1.15
2023-04-02T17:20:31.354Z,1.88
2023-04-02T17:23:05.876Z,2.42
2023-04-02T17:25:38.773Z,1.35
2023-04-02T17:28:13.033Z,2.47
2023-04-02T17:30:46.180Z,1.95
2023-04-02T17:33:16.950Z,1.40
2023-04-02T17:35:51.473Z,1.67
2023-04-02T17:38:28.648Z,1.48
2023-04-02T17:41:03.172Z,2.17
2023-04-02T17:43:37.990Z,2.42
2023-04-02T17:46:10.440Z,2.75
2023-04-02T17:48:44.982Z,1.38
2023-04-02T17:51:19.035Z,2.38
2023-04-02T17:54:01.863Z,2.58
2023-04-02T17:56:43.024Z,2.60
2023-04-02T17:59:23.860Z,1.85
2023-04-02T18:01:57.593Z,3.45
2023-04-02T18:04:35.697Z,2.80
2023-04-02T18:07:12.367Z,1.60
2023-04-02T18:09:48.845Z,1.58
2023-04-02T18:12:28.530Z,2.55
2023-04-02T18:15:05.105Z,2.78
2023-04-02T18:17:42.381Z,1.67
2023-04-02T18:20:20.346Z,2.67
2023-04-02T18:22:56.498Z,8.40
2023-04-02T18:25:44.599Z,8.55
2023-04-02T18:28:26.709Z,4.88
2023-04-02T18:31:00.229Z,6.43
2023-04-02T18:33:38.377Z,4.15
2023-04-02T18:36:11.896Z,10.00
2023-04-02T18:38:46.638Z,8.07
2023-04-02T18:41:24.539Z,6.95
2023-04-02T18:46:33.836Z,2.70
2023-04-02T18:49:06.584Z,2.80
2023-04-02T18:51:39.238Z,2.88
2023-04-02T18:54:14.754Z,9.90
2023-04-02T18:56:45.815Z,10.30
2023-04-02T18:59:25.555Z,4.50
2023-04-02T19:02:00.007Z,11.27
2023-04-02T19:04:31.847Z,14.00
2023-04-02T19:07:06.666Z,9.73
2023-04-02T19:09:38.746Z,15.32
2023-04-02T19:12:16.699Z,6.43
2023-04-02T19:17:27.828Z,11.48
2023-04-02T19:20:01.065Z,8.13
2023-04-02T19:22:35.466Z,4.53
2023-04-02T19:25:17.856Z,2.45
2023-04-02T19:27:55.162Z,2.95
2023-04-02T19:30:38.167Z,5.45
2023-04-02T19:33:16.028Z,2.67
2023-04-02T19:35:48.537Z,3.00
2023-04-02T19:38:27.436Z,2.55
2023-04-02T19:41:02.214Z,3.08
2023-04-02T19:43:32.915Z,3.33
2023-04-02T19:46:04.699Z,3.80
2023-04-02T19:48:42.599Z,4.70
2023-04-02T19:51:13.109Z,5.88
2023-04-02T19:53:43.516Z,4.32
2023-04-02T19:56:13.990Z,3.30
2023-04-02T19:58:44.379Z,8.20
2023-04-02T20:01:14.827Z,4.47
2023-04-02T20:03:47.952Z,4.35
2023-04-02T20:06:18.508Z,4.25
2023-04-02T20:08:48.995Z,4.65
2023-04-02T20:11:19.530Z,4.10
2023-04-02T20:13:50.475Z,8.43
2023-04-02T20:16:21.022Z,6.40
2023-04-02T20:18:54.150Z,5.10
2023-04-02T20:21:24.569Z,4.53
2023-04-02T20:23:56.615Z,4.10
2023-04-02T20:26:27.781Z,3.20
2023-04-02T20:28:58.358Z,4.70
2023-04-02T20:31:28.893Z,4.28
2023-04-02T20:34:05.337Z,4.32
2023-04-02T20:36:36.167Z,4.13
2023-04-02T20:39:09.381Z,4.65
2023-04-02T20:41:39.707Z,9.75
2023-04-02T20:44:10.192Z,9.88
2023-04-02T20:46:40.637Z,7.38
2023-04-02T20:49:13.909Z,5.20
2023-04-02T20:51:44.298Z,4.85
2023-04-02T20:54:14.669Z,5.18
2023-04-02T20:56:45.673Z,4.20
2023-04-02T20:59:16.135Z,4.63
2023-04-02T21:01:46.515Z,4.35
2023-04-02T21:04:19.707Z,4.63
2023-04-02T21:06:50.071Z,6.72
2023-04-02T21:09:21.705Z,5.65
2023-04-02T21:11:52.104Z,5.03
2023-04-02T21:14:22.473Z,5.43
2023-04-02T21:16:52.777Z,7.72
2023-04-02T21:19:25.728Z,5.97
2023-04-02T21:21:57.838Z,4.97
2023-04-02T21:24:28.544Z,5.03
2023-04-02T21:27:01.647Z,5.75
2023-04-02T21:29:32.044Z,6.57
2023-04-02T21:32:08.316Z,6.70
2023-04-02T21:34:47.527Z,5.97
2023-04-02T21:37:17.853Z,6.30
2023-04-02T21:39:48.225Z,7.30
2023-04-02T21:42:18.661Z,6.63
2023-04-02T21:44:49.046Z,6.10
2023-04-02T21:47:19.441Z,6.70
2023-04-02T21:49:52.462Z,6.57
2023-04-02T21:52:23.179Z,5.53
2023-04-02T21:54:53.583Z,6.15
2023-04-02T21:57:23.933Z,6.38
2023-04-02T21:59:57.093Z,6.20
2023-04-02T22:02:27.765Z,6.15
2023-04-02T22:05:00.742Z,6.18
2023-04-02T22:07:31.409Z,6.15
2023-04-02T22:10:01.773Z,5.82
2023-04-02T22:12:32.078Z,6.40
2023-04-02T22:15:02.491Z,4.90
2023-04-02T22:17:32.810Z,5.20
2023-04-02T22:20:05.830Z,5.55
2023-04-02T22:22:36.343Z,5.50
2023-04-02T22:25:07.604Z,5.72
2023-04-02T22:27:37.936Z,4.63
2023-04-02T22:30:09.119Z,5.38
2023-04-02T22:32:40.457Z,7.10
2023-04-02T22:35:13.748Z,6.55
2023-04-02T22:37:44.369Z,5.78
2023-04-02T22:40:15.345Z,5.72
2023-04-02T22:42:46.845Z,5.50
2023-04-02T22:45:18.647Z,6.55
2023-04-02T22:47:49.074Z,8.85
2023-04-02T22:50:22.862Z,8.90
2023-04-02T22:52:53.187Z,6.38
2023-04-02T22:55:23.745Z,9.38
2023-04-02T22:57:54.072Z,9.55
2023-04-02T23:00:24.417Z,9.60
2023-04-02T23:02:54.787Z,6.95
2023-04-02T23:05:27.897Z,20.92
2023-04-02T23:07:58.293Z,11.30
2023-04-02T23:10:28.829Z,9.55
2023-04-02T23:12:59.476Z,6.75
2023-04-02T23:15:29.912Z,7.63
2023-04-02T23:18:00.271Z,7.38
2023-04-02T23:20:33.294Z,7.80
2023-04-02T23:23:03.643Z,6.85
2023-04-02T23:25:34.016Z,7.35
2023-04-02T23:28:04.348Z,6.82
2023-04-02T23:30:34.926Z,4.45
2023-04-02T23:33:05.451Z,4.97
2023-04-02T23:35:38.797Z,6.85
2023-04-02T23:38:10.090Z,4.35
2023-04-02T23:40:40.673Z,6.25
2023-04-02T23:43:11.199Z,5.55
2023-04-02T23:45:41.599Z,5.15
2023-04-02T23:48:11.977Z,6.70
2023-04-02T23:50:45.155Z,5.00
2023-04-02T23:53:16.698Z,5.65
2023-04-02T23:58:17.176Z,5.88
